Archival Weather

Chicago O'Hare International

Chicago, Illinois (KORD)

Report from: Tuesday, August 16, 2022 2:51 PM CDT
Current time: Sunday, November 27, 2022 3:01 AM CST

Current weather
Weather history
Weather forecast

Temperature26.7°C (80.1°F)
Heat index26.7°C (80.0°F)
Dew point9.4°C (48.9°F)
Winds 14 kts (7.2 m/s, 16.1 mph) Northeast (40°)
Wind gusts 20 kts (10.3 m/s, 23 mph)
Visibility10 mi. (16.1 km)
Clouds Few clouds 5,500 ft. (1,676 m)
Scattered clouds 25,000 ft. (7,620 m)
Altimeter30.11 in.Hg (1020 mB)
Relative humidity34 %
Density altitude1,306 ft. (398 m)
Sea-level pressure101.9 kPa (1019 mB, 30.10 in.Hg)
Remarks Automated weather observing station with precipitation discriminator
Flight conditions Visual Meteorological Conditions
Raw dataKORD 161951Z 04014G20KT 10SM FEW055 SCT250 27/09 A3011 RMK AO2 SLP193 T02670094
An error has occurred. This application may no longer respond until reloaded. Reload 🗙